createdAt,value
2023-04-04T00:00:01.131Z,-3.81
2023-04-04T00:00:11.641Z,-3.79
2023-04-04T00:00:22.638Z,-3.79
2023-04-04T00:00:33.626Z,-3.81
2023-04-04T00:00:44.655Z,-3.79
2023-04-04T00:00:55.620Z,-3.76
2023-04-04T00:01:06.637Z,-3.76
2023-04-04T00:01:17.629Z,-3.76
2023-04-04T00:01:28.616Z,-3.76
2023-04-04T00:01:39.641Z,-3.75
2023-04-04T00:01:50.108Z,-3.72
2023-04-04T00:02:01.137Z,-3.72
2023-04-04T00:02:11.613Z,-3.72
2023-04-04T00:02:22.730Z,-3.75
2023-04-04T00:02:33.161Z,-3.75
2023-04-04T00:02:44.203Z,-3.72
2023-04-04T00:02:55.168Z,-3.71
2023-04-04T00:03:06.127Z,-3.72
2023-04-04T00:03:16.739Z,-3.72
2023-04-04T00:03:27.193Z,-3.71
2023-04-04T00:03:38.216Z,-3.71
2023-04-04T00:03:49.209Z,-3.71
2023-04-04T00:04:00.212Z,-3.71
2023-04-04T00:04:11.130Z,-3.69
2023-04-04T00:04:21.650Z,-3.71
2023-04-04T00:04:32.654Z,-3.69
2023-04-04T00:04:43.198Z,-3.69
2023-04-04T00:04:54.090Z,-3.66
2023-04-04T00:05:04.589Z,-3.69
2023-04-04T00:05:15.619Z,-3.69
2023-04-04T00:05:26.089Z,-3.67
2023-04-04T00:05:36.637Z,-3.69
2023-04-04T00:05:47.610Z,-3.69
2023-04-04T00:05:58.591Z,-3.69
2023-04-04T00:06:09.101Z,-3.69
2023-04-04T00:06:20.083Z,-3.71
2023-04-04T00:06:30.581Z,-3.69
2023-04-04T00:06:41.084Z,-3.67
2023-04-04T00:06:51.598Z,-3.72
2023-04-04T00:07:02.580Z,-3.71
2023-04-04T00:07:13.574Z,-3.71
2023-04-04T00:07:24.085Z,-3.71
2023-04-04T00:07:35.086Z,-3.71
2023-04-04T00:07:46.069Z,-3.71
2023-04-04T00:07:57.074Z,-3.71
2023-04-04T00:08:08.080Z,-3.72
2023-04-04T00:08:18.583Z,-3.71
2023-04-04T00:08:29.573Z,-3.72
2023-04-04T00:08:40.571Z,-3.72
2023-04-04T00:08:51.567Z,-3.72
2023-04-04T00:09:02.563Z,-3.72
2023-04-04T00:09:13.561Z,-3.71
2023-04-04T00:09:24.579Z,-3.71
2023-04-04T00:09:35.550Z,-3.72
2023-04-04T00:09:46.046Z,-3.72
2023-04-04T00:09:56.551Z,-3.75
2023-04-04T00:10:07.043Z,-3.75
2023-04-04T00:10:17.568Z,-3.75
2023-04-04T00:10:28.542Z,-3.75
2023-04-04T00:10:39.749Z,-3.76
2023-04-04T00:10:50.541Z,-3.76
2023-04-04T00:11:01.546Z,-3.76
2023-04-04T00:11:12.558Z,-3.76
2023-04-04T00:11:23.538Z,-3.78
2023-04-04T00:11:34.532Z,-3.78
2023-04-04T00:11:45.035Z,-3.79
2023-04-04T00:11:55.541Z,-3.79
2023-04-04T00:12:06.536Z,-3.81
2023-04-04T00:12:17.031Z,-3.81
2023-04-04T00:12:29.324Z,-3.81
2023-04-04T00:12:39.030Z,-3.81
2023-04-04T00:12:50.037Z,-3.82
2023-04-04T00:13:00.529Z,-3.81
2023-04-04T00:13:11.049Z,-3.81
2023-04-04T00:13:21.522Z,-3.81
2023-04-04T00:13:32.520Z,-3.79
2023-04-04T00:13:43.022Z,-3.79
2023-04-04T00:13:54.008Z,-3.78
2023-04-04T00:14:05.013Z,-3.79
2023-04-04T00:14:16.011Z,-3.79
2023-04-04T00:14:27.010Z,-3.81
2023-04-04T00:14:38.007Z,-3.78
2023-04-04T00:14:48.504Z,-3.79
2023-04-04T00:14:59.502Z,-3.78
2023-04-04T00:15:10.020Z,-3.76
2023-04-04T00:15:20.499Z,-3.76
2023-04-04T00:15:31.026Z,-3.76
2023-04-04T00:15:41.504Z,-3.76
2023-04-04T00:15:52.024Z,-3.76
2023-04-04T00:16:03.020Z,-3.76
2023-04-04T00:16:13.613Z,-3.76
2023-04-04T00:16:24.538Z,-3.76
2023-04-04T00:16:35.563Z,-3.76
2023-04-04T00:16:46.498Z,-3.75
2023-04-04T00:16:57.021Z,-3.75
2023-04-04T00:17:08.015Z,-3.75
2023-04-04T00:17:19.009Z,-3.76
2023-04-04T00:17:30.000Z,-3.75
2023-04-04T00:17:40.567Z,-3.75
2023-04-04T00:17:51.523Z,-3.76
2023-04-04T00:18:02.657Z,-3.76
2023-04-04T00:18:13.038Z,-3.76
2023-04-04T00:18:23.516Z,-3.72
2023-04-04T00:18:34.514Z,-3.75
2023-04-04T00:18:45.011Z,-3.75
2023-04-04T00:18:55.513Z,-3.75
2023-04-04T00:19:06.510Z,-3.76
2023-04-04T00:19:17.510Z,-3.75
2023-04-04T00:19:28.061Z,-3.75
2023-04-04T00:19:39.002Z,-3.76
2023-04-04T00:19:49.524Z,-3.75
2023-04-04T00:20:00.007Z,-3.75
2023-04-04T00:20:10.519Z,-3.78
2023-04-04T00:20:21.010Z,-3.75
2023-04-04T00:20:31.511Z,-3.75
2023-04-04T00:20:42.774Z,-3.76
2023-04-04T00:20:53.513Z,-3.72
2023-04-04T00:21:04.016Z,-3.75
2023-04-04T00:21:14.511Z,-3.76
2023-04-04T00:21:25.006Z,-3.75
2023-04-04T00:21:35.518Z,-3.76
2023-04-04T00:21:46.052Z,-3.76
2023-04-04T00:21:56.512Z,-3.76
2023-04-04T00:22:07.535Z,-3.78
2023-04-04T00:22:18.522Z,-3.79
2023-04-04T00:22:29.011Z,-3.79
2023-04-04T00:22:40.013Z,-3.76
2023-04-04T00:22:50.515Z,-3.79
2023-04-04T00:23:01.018Z,-3.79
2023-04-04T00:23:11.522Z,-3.82
2023-04-04T00:23:22.014Z,-3.82
2023-04-04T00:23:32.525Z,-3.82
2023-04-04T00:23:43.534Z,-3.82
2023-04-04T00:23:54.010Z,-3.82
2023-04-04T00:24:04.530Z,-3.83
2023-04-04T00:24:15.008Z,-3.83
2023-04-04T00:24:26.022Z,-3.83
2023-04-04T00:24:36.541Z,-3.85
2023-04-04T00:24:47.009Z,-3.86
2023-04-04T00:24:57.549Z,-3.85
2023-04-04T00:25:08.510Z,-3.85
2023-04-04T00:25:19.029Z,-3.88
2023-04-04T00:25:29.509Z,-3.88
2023-04-04T00:25:40.510Z,-3.88
2023-04-04T00:25:51.500Z,-3.91
2023-04-04T00:26:02.006Z,-3.88
2023-04-04T00:26:12.501Z,-3.91
2023-04-04T00:26:23.006Z,-3.90
2023-04-04T00:26:34.494Z,-3.88
2023-04-04T00:26:44.505Z,-3.90
2023-04-04T00:26:55.508Z,-3.90
2023-04-04T00:27:06.007Z,-3.86
2023-04-04T00:27:16.497Z,-3.90
2023-04-04T00:27:27.504Z,-3.88
2023-04-04T00:27:38.508Z,-3.90
2023-04-04T00:27:49.509Z,-3.85
2023-04-04T00:28:00.009Z,-3.86
2023-04-04T00:28:11.005Z,-3.86
2023-04-04T00:28:22.021Z,-3.83
2023-04-04T00:28:32.520Z,-3.85
2023-04-04T00:28:43.497Z,-3.83
2023-04-04T00:28:54.505Z,-3.85
2023-04-04T00:29:05.503Z,-3.83
2023-04-04T00:29:16.507Z,-3.82
2023-04-04T00:29:26.998Z,-3.83
2023-04-04T00:29:37.500Z,-3.83
2023-04-04T00:29:47.991Z,-3.85
2023-04-04T00:29:59.004Z,-3.83
2023-04-04T00:30:09.499Z,-3.85
2023-04-04T00:30:20.507Z,-3.83
2023-04-04T00:30:31.496Z,-3.86
2023-04-04T00:30:42.560Z,-3.83
2023-04-04T00:30:53.501Z,-3.85
2023-04-04T00:31:04.034Z,-3.85
2023-04-04T00:31:15.041Z,-3.85
2023-04-04T00:31:25.534Z,-3.83
2023-04-04T00:31:36.575Z,-3.83
2023-04-04T00:31:47.561Z,-3.82
2023-04-04T00:31:58.577Z,-3.83
2023-04-04T00:32:09.010Z,-3.83
2023-04-04T00:32:20.019Z,-3.83
2023-04-04T00:32:30.545Z,-3.83
2023-04-04T00:32:41.536Z,-3.83
2023-04-04T00:32:52.171Z,-3.83
2023-04-04T00:33:02.562Z,-3.83
2023-04-04T00:33:13.534Z,-3.83
2023-04-04T00:33:24.520Z,-3.83
2023-04-04T00:33:35.482Z,-3.83
2023-04-04T00:33:45.999Z,-3.85
2023-04-04T00:33:56.982Z,-3.83
2023-04-04T00:34:07.502Z,-3.83
2023-04-04T00:34:17.973Z,-3.85
2023-04-04T00:34:28.490Z,-3.86
2023-04-04T00:34:38.972Z,-3.85
2023-04-04T00:34:49.978Z,-3.85
2023-04-04T00:35:00.530Z,-3.85
2023-04-04T00:35:10.980Z,-3.85
2023-04-04T00:35:21.972Z,-3.88
2023-04-04T00:35:32.509Z,-3.85
2023-04-04T00:35:43.497Z,-3.83
2023-04-04T00:35:54.041Z,-3.85
2023-04-04T00:36:05.019Z,-3.85
2023-04-04T00:36:15.985Z,-3.85
2023-04-04T00:36:26.975Z,-3.83
2023-04-04T00:36:37.993Z,-3.86
2023-04-04T00:36:48.469Z,-3.86
2023-04-04T00:36:59.461Z,-3.86
2023-04-04T00:37:09.958Z,-3.88
2023-04-04T00:37:20.490Z,-3.91
2023-04-04T00:37:31.459Z,-3.88
2023-04-04T00:37:42.490Z,-3.91
2023-04-04T00:37:52.960Z,-3.91
2023-04-04T00:38:03.467Z,-3.91
2023-04-04T00:38:14.491Z,-3.91
2023-04-04T00:38:24.962Z,-3.91
2023-04-04T00:38:35.966Z,-3.90
2023-04-04T00:38:46.955Z,-3.90
2023-04-04T00:38:57.462Z,-3.90
2023-04-04T00:39:08.454Z,-3.90
2023-04-04T00:39:18.950Z,-3.90
2023-04-04T00:39:29.445Z,-3.91
2023-04-04T00:39:40.462Z,-3.86
2023-04-04T00:39:50.937Z,-3.86
2023-04-04T00:40:01.944Z,-3.86
2023-04-04T00:40:12.938Z,-3.86
2023-04-04T00:40:23.435Z,-3.85
2023-04-04T00:40:34.431Z,-3.86
2023-04-04T00:40:45.433Z,-3.85
2023-04-04T00:40:55.933Z,-3.83
2023-04-04T00:41:06.930Z,-3.85
2023-04-04T00:41:17.434Z,-3.83
2023-04-04T00:41:28.460Z,-3.85
2023-04-04T00:41:39.418Z,-3.85
2023-04-04T00:41:50.417Z,-3.85
2023-04-04T00:42:01.461Z,-3.83
2023-04-04T00:42:12.436Z,-3.85
2023-04-04T00:42:23.439Z,-3.86
2023-04-04T00:42:34.416Z,-3.86
2023-04-04T00:42:44.921Z,-3.86
2023-04-04T00:42:55.916Z,-3.90
2023-04-04T00:43:06.900Z,-3.86
2023-04-04T00:43:17.409Z,-3.88
2023-04-04T00:43:28.417Z,-3.90
2023-04-04T00:43:39.401Z,-3.93
2023-04-04T00:43:49.897Z,-3.90
2023-04-04T00:44:00.892Z,-3.93
2023-04-04T00:44:11.408Z,-3.94
2023-04-04T00:44:22.390Z,-3.94
2023-04-04T00:44:32.889Z,-3.94
2023-04-04T00:44:43.880Z,-3.96
2023-04-04T00:44:54.384Z,-3.94
2023-04-04T00:45:05.382Z,-3.94
2023-04-04T00:45:15.878Z,-3.94
2023-04-04T00:45:26.440Z,-3.96
2023-04-04T00:45:37.422Z,-3.97
2023-04-04T00:45:48.425Z,-3.97
2023-04-04T00:45:59.399Z,-4.00
2023-04-04T00:46:10.446Z,-3.99
2023-04-04T00:46:21.388Z,-3.97
2023-04-04T00:46:31.872Z,-4.00
2023-04-04T00:46:42.866Z,-3.99
2023-04-04T00:46:53.875Z,-3.99
2023-04-04T00:47:04.874Z,-4.01
2023-04-04T00:47:15.398Z,-4.00
2023-04-04T00:47:26.422Z,-4.01
2023-04-04T00:47:37.360Z,-4.00
2023-04-04T00:47:48.413Z,-4.01
2023-04-04T00:47:58.890Z,-4.01
2023-04-04T00:48:09.397Z,-4.03
2023-04-04T00:48:20.363Z,-4.01
2023-04-04T00:48:31.375Z,-4.01
2023-04-04T00:48:42.368Z,-4.03
2023-04-04T00:48:53.353Z,-4.01
2023-04-04T00:49:03.835Z,-4.04
2023-04-04T00:49:14.840Z,-4.03
2023-04-04T00:49:25.345Z,-4.04
2023-04-04T00:49:36.330Z,-4.06
2023-04-04T00:49:47.330Z,-4.04
2023-04-04T00:49:58.336Z,-4.06
2023-04-04T00:50:08.821Z,-4.04
2023-04-04T00:50:19.829Z,-4.07
2023-04-04T00:50:30.813Z,-4.06
2023-04-04T00:50:42.164Z,-4.12
2023-04-04T00:50:52.812Z,-4.11
2023-04-04T00:51:03.806Z,-4.12
2023-04-04T00:51:14.808Z,-4.12
2023-04-04T00:51:25.810Z,-4.14
2023-04-04T00:51:36.797Z,-4.14
2023-04-04T00:51:47.317Z,-4.14
2023-04-04T00:51:57.836Z,-4.15
2023-04-04T00:52:08.301Z,-4.17
2023-04-04T00:52:18.824Z,-4.17
2023-04-04T00:52:29.868Z,-4.15
2023-04-04T00:52:40.322Z,-4.17
2023-04-04T00:52:51.295Z,-4.15
2023-04-04T00:53:02.352Z,-4.15
2023-04-04T00:53:12.777Z,-4.17
2023-04-04T00:53:23.296Z,-4.18
2023-04-04T00:53:34.278Z,-4.20
2023-04-04T00:53:45.281Z,-4.21
2023-04-04T00:53:56.273Z,-4.21
2023-04-04T00:54:06.786Z,-4.24
2023-04-04T00:54:17.784Z,-4.22
2023-04-04T00:54:28.777Z,-4.24
2023-04-04T00:54:39.783Z,-4.24
2023-04-04T00:54:50.288Z,-4.25
2023-04-04T00:55:01.261Z,-4.24
2023-04-04T00:55:12.268Z,-4.25
2023-04-04T00:55:23.270Z,-4.28
2023-04-04T00:55:34.259Z,-4.25
2023-04-04T00:55:44.762Z,-4.22
2023-04-04T00:55:55.755Z,-4.25
2023-04-04T00:56:06.760Z,-4.22
2023-04-04T00:56:17.751Z,-4.25
2023-04-04T00:56:28.260Z,-4.24
2023-04-04T00:56:39.247Z,-4.22
2023-04-04T00:56:50.255Z,-4.22
2023-04-04T00:57:00.757Z,-4.22
2023-04-04T00:57:11.249Z,-4.22
2023-04-04T00:57:22.281Z,-4.22
2023-04-04T00:57:33.250Z,-4.21
2023-04-04T00:57:44.246Z,-4.22
2023-04-04T00:57:54.737Z,-4.24
2023-04-04T00:58:05.245Z,-4.21
2023-04-04T00:58:16.245Z,-4.21
2023-04-04T00:58:27.258Z,-4.21
2023-04-04T00:58:38.242Z,-4.21
2023-04-04T00:58:49.283Z,-4.22
2023-04-04T00:59:00.293Z,-4.22
2023-04-04T00:59:10.764Z,-4.22
2023-04-04T00:59:21.276Z,-4.22
2023-04-04T00:59:32.380Z,-4.21
2023-04-04T00:59:42.732Z,-4.22
2023-04-04T00:59:53.238Z,-4.21
2023-04-04T01:00:04.255Z,-4.20
2023-04-04T01:00:15.221Z,-4.21
2023-04-04T01:00:26.240Z,-4.20
2023-04-04T01:00:37.346Z,-4.20
2023-04-04T01:00:48.265Z,-4.17
2023-04-04T01:00:58.730Z,-4.17
2023-04-04T01:01:09.258Z,-4.17
2023-04-04T01:01:20.259Z,-4.15
2023-04-04T01:01:30.722Z,-4.18
2023-04-04T01:01:41.734Z,-4.17
2023-04-04T01:01:52.708Z,-4.17
2023-04-04T01:02:05.634Z,-4.15
2023-04-04T01:02:14.705Z,-4.17
2023-04-04T01:02:25.691Z,-4.15
2023-04-04T01:02:36.240Z,-4.15
2023-04-04T01:02:46.709Z,-4.15
2023-04-04T01:02:57.692Z,-4.14
2023-04-04T01:03:08.791Z,-4.15
2023-04-04T01:03:19.676Z,-4.14
2023-04-04T01:03:30.173Z,-4.15
2023-04-04T01:03:41.173Z,-4.14
2023-04-04T01:03:51.750Z,-4.15
2023-04-04T01:04:02.782Z,-4.15
2023-04-04T01:04:13.199Z,-4.12
2023-04-04T01:04:24.221Z,-4.15
2023-04-04T01:04:34.732Z,-4.14
2023-04-04T01:04:45.666Z,-4.12
2023-04-04T01:04:56.660Z,-4.12
2023-04-04T01:05:07.166Z,-4.15
2023-04-04T01:05:17.678Z,-4.14
2023-04-04T01:05:28.660Z,-4.14
2023-04-04T01:05:39.655Z,-4.14
2023-04-04T01:05:50.663Z,-4.12
2023-04-04T01:06:01.651Z,-4.15
2023-04-04T01:06:12.645Z,-4.15
2023-04-04T01:06:23.643Z,-4.15
2023-04-04T01:06:34.650Z,-4.15
2023-04-04T01:06:45.652Z,-4.17
2023-04-04T01:06:56.144Z,-4.15
2023-04-04T01:07:06.642Z,-4.18
2023-04-04T01:07:17.638Z,-4.17
2023-04-04T01:07:28.134Z,-4.18
2023-04-04T01:07:39.134Z,-4.17
2023-04-04T01:07:50.147Z,-4.18
2023-04-04T01:08:00.629Z,-4.18
2023-04-04T01:08:11.132Z,-4.21
2023-04-04T01:08:22.133Z,-4.17
2023-04-04T01:08:32.631Z,-4.20
2023-04-04T01:08:43.142Z,-4.18
2023-04-04T01:08:54.137Z,-4.20
2023-04-04T01:09:04.632Z,-4.17
2023-04-04T01:09:15.126Z,-4.18
2023-04-04T01:09:25.633Z,-4.18
2023-04-04T01:09:36.616Z,-4.18
2023-04-04T01:09:47.127Z,-4.18
2023-04-04T01:09:58.146Z,-4.15
2023-04-04T01:10:09.141Z,-4.18
2023-04-04T01:10:19.629Z,-4.17
2023-04-04T01:10:30.142Z,-4.17
2023-04-04T01:10:41.439Z,-4.17
2023-04-04T01:10:51.624Z,-4.18
2023-04-04T01:11:02.627Z,-4.17
2023-04-04T01:11:13.126Z,-4.17
2023-04-04T01:11:23.623Z,-4.18
2023-04-04T01:11:34.627Z,-4.17
2023-04-04T01:11:45.651Z,-4.18
2023-04-04T01:11:56.124Z,-4.18
2023-04-04T01:12:07.119Z,-4.17
2023-04-04T01:12:18.135Z,-4.18
2023-04-04T01:12:29.111Z,-4.17
2023-04-04T01:12:40.110Z,-4.18
2023-04-04T01:12:51.234Z,-4.18
2023-04-04T01:13:02.146Z,-4.18
2023-04-04T01:13:13.097Z,-4.18
2023-04-04T01:13:24.109Z,-4.20
2023-04-04T01:13:34.592Z,-4.20
2023-04-04T01:13:45.576Z,-4.21
2023-04-04T01:13:56.593Z,-4.20
2023-04-04T01:14:07.582Z,-4.22
2023-04-04T01:14:18.081Z,-4.22
2023-04-04T01:14:29.075Z,-4.22
2023-04-04T01:14:40.070Z,-4.21
2023-04-04T01:14:51.069Z,-4.22
2023-04-04T01:15:02.110Z,-4.24
2023-04-04T01:15:13.084Z,-4.22
2023-04-04T01:15:24.057Z,-4.22
2023-04-04T01:15:35.064Z,-4.24
2023-04-04T01:15:46.050Z,-4.22
2023-04-04T01:15:57.054Z,-4.22
2023-04-04T01:16:08.076Z,-4.21
2023-04-04T01:16:19.079Z,-4.20
2023-04-04T01:16:30.089Z,-4.20
2023-04-04T01:16:41.114Z,-4.21
2023-04-04T01:16:51.596Z,-4.20
2023-04-04T01:17:02.636Z,-4.18
2023-04-04T01:17:13.531Z,-4.20
2023-04-04T01:17:24.527Z,-4.18
2023-04-04T01:17:35.046Z,-4.18
2023-04-04T01:17:46.081Z,-4.18
2023-04-04T01:17:57.125Z,-4.18
2023-04-04T01:18:08.068Z,-4.17
2023-04-04T01:18:19.062Z,-4.15
2023-04-04T01:18:30.023Z,-4.18
2023-04-04T01:18:41.006Z,-4.18
2023-04-04T01:18:52.012Z,-4.17
2023-04-04T01:19:03.009Z,-4.17
2023-04-04T01:19:14.043Z,-4.17
2023-04-04T01:19:24.989Z,-4.18
2023-04-04T01:19:35.994Z,-4.18
2023-04-04T01:19:46.516Z,-4.17
2023-04-04T01:19:57.484Z,-4.20
2023-04-04T01:20:08.003Z,-4.18
2023-04-04T01:20:18.981Z,-4.17
2023-04-04T01:20:29.981Z,-4.20
2023-04-04T01:20:40.612Z,-4.20
2023-04-04T01:20:51.473Z,-4.18
2023-04-04T01:21:02.492Z,-4.18
2023-04-04T01:21:13.479Z,-4.21
2023-04-04T01:21:24.460Z,-4.20
2023-04-04T01:21:35.453Z,-4.20
2023-04-04T01:21:46.457Z,-4.20
2023-04-04T01:21:56.952Z,-4.18
2023-04-04T01:22:07.951Z,-4.20
2023-04-04T01:22:18.441Z,-4.18
2023-04-04T01:22:29.451Z,-4.17
2023-04-04T01:22:40.449Z,-4.18
2023-04-04T01:22:51.434Z,-4.17
2023-04-04T01:23:01.943Z,-4.18
2023-04-04T01:23:12.945Z,-4.18
2023-04-04T01:23:23.925Z,-4.18
2023-04-04T01:23:34.422Z,-4.15
2023-04-04T01:23:44.932Z,-4.15
2023-04-04T01:23:55.420Z,-4.15
2023-04-04T01:24:05.982Z,-4.15
2023-04-04T01:24:16.936Z,-4.17
2023-04-04T01:24:27.422Z,-4.15
2023-04-04T01:24:37.929Z,-4.15
2023-04-04T01:24:48.926Z,-4.17
2023-04-04T01:24:59.935Z,-4.14
2023-04-04T01:25:10.953Z,-4.18
2023-04-04T01:25:21.916Z,-4.18
2023-04-04T01:25:32.413Z,-4.14
2023-04-04T01:25:42.933Z,-4.17
2023-04-04T01:25:53.405Z,-4.15
2023-04-04T01:26:04.404Z,-4.15
2023-04-04T01:26:14.917Z,-4.15
2023-04-04T01:26:25.406Z,-4.15
2023-04-04T01:26:35.912Z,-4.15
2023-04-04T01:26:46.410Z,-4.15
2023-04-04T01:26:56.905Z,-4.17
2023-04-04T01:27:07.907Z,-4.15
2023-04-04T01:27:18.396Z,-4.18
2023-04-04T01:27:29.404Z,-4.15
2023-04-04T01:27:40.392Z,-4.17
2023-04-04T01:27:51.447Z,-4.17
2023-04-04T01:28:02.389Z,-4.18
2023-04-04T01:28:13.390Z,-4.18
2023-04-04T01:28:23.887Z,-4.20
2023-04-04T01:28:34.873Z,-4.21
2023-04-04T01:28:45.377Z,-4.21
2023-04-04T01:28:55.878Z,-4.20
2023-04-04T01:29:06.411Z,-4.21
2023-04-04T01:29:16.872Z,-4.21
2023-04-04T01:29:27.372Z,-4.20
2023-04-04T01:29:38.369Z,-4.21
2023-04-04T01:29:49.361Z,-4.22
2023-04-04T01:30:00.375Z,-4.21
2023-04-04T01:30:10.863Z,-4.21
2023-04-04T01:30:21.867Z,-4.24
2023-04-04T01:30:32.391Z,-4.21
2023-04-04T01:30:43.644Z,-4.22
2023-04-04T01:30:54.446Z,-4.24
2023-04-04T01:31:05.354Z,-4.25
2023-04-04T01:31:16.347Z,-4.25
2023-04-04T01:31:26.901Z,-4.25
2023-04-04T01:31:37.846Z,-4.28
2023-04-04T01:31:48.836Z,-4.28
2023-04-04T01:31:59.828Z,-4.29
2023-04-04T01:32:10.826Z,-4.29
2023-04-04T01:32:21.818Z,-4.30
2023-04-04T01:32:32.326Z,-4.29
2023-04-04T01:32:42.862Z,-4.29
2023-04-04T01:32:53.820Z,-4.30
2023-04-04T01:33:04.837Z,-4.30
2023-04-04T01:33:15.829Z,-4.30
2023-04-04T01:33:26.319Z,-4.32
2023-04-04T01:33:37.310Z,-4.32
2023-04-04T01:33:48.303Z,-4.30
2023-04-04T01:33:58.815Z,-4.32
2023-04-04T01:34:09.802Z,-4.33
2023-04-04T01:34:20.800Z,-4.33
2023-04-04T01:34:31.801Z,-4.32
2023-04-04T01:34:42.807Z,-4.29
2023-04-04T01:34:53.297Z,-4.30
2023-04-04T01:35:03.805Z,-4.32
2023-04-04T01:35:14.808Z,-4.29
2023-04-04T01:35:25.796Z,-4.29
2023-04-04T01:35:36.834Z,-4.30
2023-04-04T01:35:47.788Z,-4.29
2023-04-04T01:35:58.305Z,-4.30
2023-04-04T01:36:09.343Z,-4.30
2023-04-04T01:36:20.316Z,-4.32
2023-04-04T01:36:31.401Z,-4.32
2023-04-04T01:36:42.273Z,-4.30
2023-04-04T01:36:53.275Z,-4.30
2023-04-04T01:37:04.270Z,-4.32
2023-04-04T01:37:15.263Z,-4.33
2023-04-04T01:37:26.262Z,-4.33
2023-04-04T01:37:36.768Z,-4.33
2023-04-04T01:37:47.753Z,-4.35
2023-04-04T01:37:58.757Z,-4.33
2023-04-04T01:38:09.267Z,-4.32
2023-04-04T01:38:20.260Z,-4.30
2023-04-04T01:38:31.243Z,-4.29
2023-04-04T01:38:41.759Z,-4.29
2023-04-04T01:38:52.749Z,-4.29
2023-04-04T01:39:03.740Z,-4.28
2023-04-04T01:39:14.253Z,-4.29
2023-04-04T01:39:24.774Z,-4.29
2023-04-04T01:39:35.732Z,-4.28
2023-04-04T01:39:46.230Z,-4.30
2023-04-04T01:39:57.234Z,-4.32
2023-04-04T01:40:08.220Z,-4.28
2023-04-04T01:40:19.285Z,-4.29
2023-04-04T01:40:30.220Z,-4.29
2023-04-04T01:40:41.449Z,-4.29
2023-04-04T01:42:11.766Z,-4.29
2023-04-04T01:42:12.134Z,-4.30
2023-04-04T01:42:22.861Z,-4.32
2023-04-04T01:42:33.358Z,-4.28
2023-04-04T01:42:43.866Z,-4.29
2023-04-04T01:42:54.871Z,-4.29
2023-04-04T01:43:16.862Z,-4.30
2023-04-04T01:43:27.858Z,-4.32
2023-04-04T01:43:38.358Z,-4.33
2023-04-04T01:43:48.854Z,-4.35
2023-04-04T01:43:59.371Z,-4.33
2023-04-04T01:44:09.859Z,-4.35
2023-04-04T01:44:20.879Z,-4.36
2023-04-04T01:44:31.857Z,-4.33
2023-04-04T01:44:42.351Z,-4.35
2023-04-04T01:44:53.384Z,-4.33
2023-04-04T01:45:03.865Z,-4.35
2023-04-04T01:45:14.869Z,-4.33
2023-04-04T01:45:25.857Z,-4.36
2023-04-04T01:45:36.350Z,-4.36
2023-04-04T01:45:46.885Z,-4.35
2023-04-04T01:45:57.365Z,-4.33
2023-04-04T01:46:08.031Z,-4.35
2023-04-04T01:46:18.987Z,-4.35
2023-04-04T01:46:29.499Z,-4.36
2023-04-04T01:46:40.339Z,-4.36
2023-04-04T01:46:50.841Z,-4.38
2023-04-04T01:47:01.834Z,-4.35
2023-04-04T01:47:12.835Z,-4.36
2023-04-04T01:47:23.444Z,-4.35
2023-04-04T01:47:34.346Z,-4.35
2023-04-04T01:47:45.350Z,-4.36
2023-04-04T01:47:56.347Z,-4.35
2023-04-04T01:48:07.321Z,-4.33
2023-04-04T01:48:18.312Z,-4.33
2023-04-04T01:48:28.837Z,-4.35
2023-04-04T01:48:39.816Z,-4.33
2023-04-04T01:48:50.821Z,-4.33
2023-04-04T01:49:01.828Z,-4.30
2023-04-04T01:49:12.817Z,-4.32
2023-04-04T01:49:23.822Z,-4.33
2023-04-04T01:49:34.811Z,-4.33
2023-04-04T01:49:45.809Z,-4.33
2023-04-04T01:49:56.809Z,-4.32
2023-04-04T01:50:07.305Z,-4.32
2023-04-04T01:50:18.335Z,-4.35
2023-04-04T01:50:28.810Z,-4.33
2023-04-04T01:50:40.284Z,-4.32
2023-04-04T01:50:50.808Z,-4.33
2023-04-04T01:51:01.294Z,-4.33
2023-04-04T01:51:11.794Z,-4.32
2023-04-04T01:51:22.800Z,-4.32
2023-04-04T01:51:33.792Z,-4.33
2023-04-04T01:51:44.333Z,-4.30
2023-04-04T01:51:55.291Z,-4.32
2023-04-04T01:52:06.304Z,-4.30
2023-04-04T01:52:17.305Z,-4.30
2023-04-04T01:52:28.356Z,-4.32
2023-04-04T01:52:38.797Z,-4.33
2023-04-04T01:52:49.780Z,-4.33
2023-04-04T01:53:00.778Z,-4.35
2023-04-04T01:53:11.286Z,-4.36
2023-04-04T01:53:21.787Z,-4.36
2023-04-04T01:53:32.781Z,-4.36
2023-04-04T01:53:43.784Z,-4.35
2023-04-04T01:53:54.779Z,-4.36
2023-04-04T01:54:05.782Z,-4.36
2023-04-04T01:54:16.264Z,-4.35
2023-04-04T01:54:26.779Z,-4.36
2023-04-04T01:54:37.273Z,-4.35
2023-04-04T01:54:47.766Z,-4.32
2023-04-04T01:54:58.278Z,-4.30
2023-04-04T01:55:08.813Z,-4.30
2023-04-04T01:55:19.269Z,-4.29
2023-04-04T01:55:29.877Z,-4.32
2023-04-04T01:55:40.326Z,-4.30
2023-04-04T01:55:50.776Z,-4.30
2023-04-04T01:56:01.767Z,-4.32
2023-04-04T01:56:12.261Z,-4.30
2023-04-04T01:56:23.298Z,-4.32
2023-04-04T01:56:33.763Z,-4.32
2023-04-04T01:56:44.767Z,-4.30
2023-04-04T01:56:55.307Z,-4.33
2023-04-04T01:57:05.767Z,-4.29
2023-04-04T01:57:16.767Z,-4.29
2023-04-04T01:57:27.764Z,-4.30
2023-04-04T01:57:38.792Z,-4.30
2023-04-04T01:57:49.256Z,-4.28
2023-04-04T01:58:00.260Z,-4.29
2023-04-04T01:58:10.763Z,-4.30
2023-04-04T01:58:21.753Z,-4.30
2023-04-04T01:58:32.766Z,-4.30
2023-04-04T01:58:43.260Z,-4.30
2023-04-04T01:58:54.278Z,-4.29
2023-04-04T01:59:05.276Z,-4.30
2023-04-04T01:59:15.788Z,-4.29
2023-04-04T01:59:26.899Z,-4.29
2023-04-04T01:59:37.262Z,-4.30
2023-04-04T01:59:48.255Z,-4.32
2023-04-04T01:59:59.256Z,-4.30
2023-04-04T02:00:10.289Z,-4.30
2023-04-04T02:00:20.758Z,-4.30
2023-04-04T02:00:31.249Z,-4.32
2023-04-04T02:00:42.137Z,-4.30
2023-04-04T02:00:52.250Z,-4.30
2023-04-04T02:01:03.264Z,-4.32
2023-04-04T02:01:14.318Z,-4.30
2023-04-04T02:01:24.759Z,-4.32
2023-04-04T02:01:35.279Z,-4.30
2023-04-04T02:01:45.786Z,-4.29
2023-04-04T02:01:56.774Z,-4.30
2023-04-04T02:02:07.752Z,-4.33
2023-04-04T02:02:18.758Z,-4.30
2023-04-04T02:02:29.863Z,-4.33
2023-04-04T02:02:40.316Z,-4.30
2023-04-04T02:02:51.302Z,-4.30
2023-04-04T02:03:01.843Z,-4.32
2023-04-04T02:03:12.756Z,-4.30
2023-04-04T02:03:23.765Z,-4.30
2023-04-04T02:03:34.246Z,-4.32
2023-04-04T02:03:45.305Z,-4.32
2023-04-04T02:03:55.814Z,-4.33
2023-04-04T02:04:06.340Z,-4.32
2023-04-04T02:04:17.285Z,-4.32
2023-04-04T02:04:28.366Z,-4.35
2023-04-04T02:04:38.753Z,-4.32
2023-04-04T02:04:49.744Z,-4.33
2023-04-04T02:05:00.746Z,-4.32
2023-04-04T02:05:11.237Z,-4.33
2023-04-04T02:05:21.756Z,-4.32
2023-04-04T02:05:32.255Z,-4.33
2023-04-04T02:05:43.251Z,-4.32
2023-04-04T02:05:54.272Z,-4.32
2023-04-04T02:06:05.233Z,-4.32
2023-04-04T02:06:15.770Z,-4.32
2023-04-04T02:06:26.736Z,-4.29
2023-04-04T02:06:37.237Z,-4.32
2023-04-04T02:06:47.732Z,-4.30
2023-04-04T02:06:58.248Z,-4.30
2023-04-04T02:07:08.735Z,-4.32
2023-04-04T02:07:19.245Z,-4.33
2023-04-04T02:07:29.746Z,-4.30
2023-04-04T02:07:40.769Z,-4.30
2023-04-04T02:07:51.358Z,-4.29
2023-04-04T02:08:01.763Z,-4.30
2023-04-04T02:08:12.267Z,-4.30
2023-04-04T02:08:23.240Z,-4.29
2023-04-04T02:08:33.738Z,-4.30
2023-04-04T02:08:44.238Z,-4.30
2023-04-04T02:08:55.251Z,-4.32
2023-04-04T02:09:06.242Z,-4.30
2023-04-04T02:09:16.741Z,-4.32
2023-04-04T02:09:27.791Z,-4.30
2023-04-04T02:09:38.262Z,-4.30
2023-04-04T02:09:48.748Z,-4.29
2023-04-04T02:09:59.744Z,-4.32
2023-04-04T02:10:10.238Z,-4.30
2023-04-04T02:10:20.754Z,-4.30
2023-04-04T02:10:31.262Z,-4.32
2023-04-04T02:10:42.204Z,-4.30
2023-04-04T02:10:52.743Z,-4.32
2023-04-04T02:11:03.236Z,-4.30
2023-04-04T02:11:13.740Z,-4.33
2023-04-04T02:11:24.744Z,-4.32
2023-04-04T02:11:35.736Z,-4.32
2023-04-04T02:11:46.258Z,-4.33
2023-04-04T02:11:56.740Z,-4.32
2023-04-04T02:12:07.234Z,-4.32
2023-04-04T02:12:18.264Z,-4.32
2023-04-04T02:12:28.742Z,-4.32
2023-04-04T02:12:39.735Z,-4.30
2023-04-04T02:12:50.807Z,-4.32
2023-04-04T02:13:01.734Z,-4.29
2023-04-04T02:13:12.251Z,-4.28
2023-04-04T02:13:23.225Z,-4.28
2023-04-04T02:13:34.289Z,-4.29
2023-04-04T02:13:44.719Z,-4.30
2023-04-04T02:13:55.712Z,-4.29
2023-04-04T02:14:06.710Z,-4.30
2023-04-04T02:14:17.718Z,-4.28
2023-04-04T02:14:28.716Z,-4.29
2023-04-04T02:14:39.712Z,-4.29
2023-04-04T02:14:50.202Z,-4.29
2023-04-04T02:15:01.200Z,-4.29
2023-04-04T02:15:12.217Z,-4.29
2023-04-04T02:15:23.210Z,-4.30
2023-04-04T02:15:33.693Z,-4.29
2023-04-04T02:15:44.708Z,-4.32
2023-04-04T02:15:55.215Z,-4.32
2023-04-04T02:16:06.204Z,-4.33
2023-04-04T02:16:17.230Z,-4.33
2023-04-04T02:16:27.688Z,-4.32
2023-04-04T02:16:38.705Z,-4.33
2023-04-04T02:16:49.208Z,-4.35
2023-04-04T02:16:59.687Z,-4.33
2023-04-04T02:17:10.688Z,-4.35
2023-04-04T02:17:21.691Z,-4.33
2023-04-04T02:17:32.782Z,-4.33
2023-04-04T02:17:43.715Z,-4.35
2023-04-04T02:17:54.727Z,-4.33
2023-04-04T02:18:05.687Z,-4.32
2023-04-04T02:18:16.677Z,-4.33
2023-04-04T02:18:27.670Z,-4.35
2023-04-04T02:18:38.681Z,-4.35
2023-04-04T02:18:49.660Z,-4.35
2023-04-04T02:19:00.669Z,-4.35
2023-04-04T02:19:11.657Z,-4.36
2023-04-04T02:19:22.669Z,-4.36
2023-04-04T02:19:33.650Z,-4.35
2023-04-04T02:19:44.657Z,-4.38
2023-04-04T02:19:55.646Z,-4.36
2023-04-04T02:20:06.653Z,-4.38
2023-04-04T02:20:17.147Z,-4.36